createdAt,value
2023-04-15T00:02:16.376Z,7.97
2023-04-15T00:04:45.133Z,8.07
2023-04-15T00:07:12.822Z,8.13
2023-04-15T00:09:41.487Z,8.37
2023-04-15T00:12:09.314Z,8.77
2023-04-15T00:14:37.177Z,8.60
2023-04-15T00:17:05.252Z,8.43
2023-04-15T00:19:33.484Z,8.40
2023-04-15T00:22:01.634Z,8.53
2023-04-15T00:24:29.460Z,8.07
2023-04-15T00:26:57.087Z,7.03
2023-04-15T00:29:24.766Z,8.00
2023-04-15T00:31:52.564Z,8.13
2023-04-15T00:34:20.425Z,7.87
2023-04-15T00:36:47.956Z,8.23
2023-04-15T00:39:16.547Z,7.83
2023-04-15T00:41:45.791Z,8.63
2023-04-15T00:44:13.331Z,8.63
2023-04-15T00:46:41.907Z,8.33
2023-04-15T00:49:09.479Z,8.47
2023-04-15T00:51:37.310Z,7.63
2023-04-15T00:54:06.940Z,8.13
2023-04-15T00:56:39.301Z,8.63
2023-04-15T00:59:08.123Z,7.63
2023-04-15T01:01:39.056Z,8.20
2023-04-15T01:04:07.266Z,8.13
2023-04-15T01:06:34.826Z,8.33
2023-04-15T01:09:02.847Z,8.43
2023-04-15T01:11:33.687Z,7.90
2023-04-15T01:14:01.290Z,8.47
2023-04-15T01:16:28.949Z,8.17
2023-04-15T01:18:57.143Z,8.13
2023-04-15T01:21:24.922Z,7.97
2023-04-15T01:23:57.076Z,7.93
2023-04-15T01:26:24.885Z,8.33
2023-04-15T01:28:52.335Z,7.87
2023-04-15T01:31:19.811Z,8.00
2023-04-15T01:33:47.317Z,7.97
2023-04-15T01:36:15.160Z,8.10
2023-04-15T01:38:42.660Z,8.53
2023-04-15T01:41:10.207Z,8.13
2023-04-15T01:43:38.095Z,8.60
2023-04-15T01:46:06.418Z,8.17
2023-04-15T01:48:34.173Z,7.63
2023-04-15T01:51:01.670Z,8.33
2023-04-15T01:53:30.027Z,8.37
2023-04-15T01:55:57.536Z,7.80
2023-04-15T01:58:25.281Z,7.60
2023-04-15T02:00:52.864Z,8.13
2023-04-15T02:03:20.510Z,7.60
2023-04-15T02:05:48.152Z,8.30
2023-04-15T02:08:15.612Z,8.00
2023-04-15T02:10:43.696Z,8.47
2023-04-15T02:13:11.182Z,8.93
2023-04-15T02:15:38.707Z,8.00
2023-04-15T02:18:06.190Z,7.80
2023-04-15T02:20:34.574Z,11.37
2023-04-15T02:23:02.202Z,9.63
2023-04-15T02:25:29.641Z,9.43
2023-04-15T02:27:58.508Z,9.57
2023-04-15T02:30:26.145Z,10.80
2023-04-15T02:32:53.842Z,7.97
2023-04-15T02:35:21.633Z,8.07
2023-04-15T02:37:49.107Z,7.57
2023-04-15T02:40:17.296Z,7.90
2023-04-15T02:42:45.052Z,7.80
2023-04-15T02:45:13.221Z,8.30
2023-04-15T02:47:44.616Z,7.73
2023-04-15T02:50:15.283Z,7.60
2023-04-15T02:52:44.596Z,7.80
2023-04-15T02:55:13.222Z,8.40
2023-04-15T02:57:41.360Z,8.00
2023-04-15T03:00:11.826Z,8.33
2023-04-15T03:02:41.219Z,8.37
2023-04-15T03:05:13.530Z,10.37
2023-04-15T03:07:41.248Z,9.13
2023-04-15T03:10:09.432Z,9.43
2023-04-15T03:12:36.888Z,8.73
2023-04-15T03:15:04.678Z,8.93
2023-04-15T03:17:32.264Z,8.40
2023-04-15T03:19:59.790Z,10.53
2023-04-15T03:22:27.248Z,15.00
2023-04-15T03:24:54.728Z,11.53
2023-04-15T03:27:22.218Z,9.50
2023-04-15T03:29:49.709Z,10.47
2023-04-15T03:32:17.495Z,8.93
2023-04-15T03:34:45.009Z,8.87
2023-04-15T03:37:12.495Z,8.10
2023-04-15T03:39:39.994Z,8.57
2023-04-15T03:42:07.507Z,9.97
2023-04-15T03:44:34.952Z,9.20
2023-04-15T03:47:02.490Z,8.63
2023-04-15T03:49:30.018Z,7.90
2023-04-15T03:51:57.622Z,9.03
2023-04-15T03:54:25.170Z,8.23
2023-04-15T03:56:53.274Z,7.80
2023-04-15T03:59:20.725Z,8.10
2023-04-15T04:01:48.247Z,6.90
2023-04-15T04:04:15.937Z,7.50
2023-04-15T04:06:43.429Z,7.00
2023-04-15T04:09:10.999Z,6.50
2023-04-15T04:11:38.552Z,6.47
2023-04-15T04:14:06.316Z,6.07
2023-04-15T04:16:33.953Z,6.20
2023-04-15T04:19:02.183Z,6.80
2023-04-15T04:21:30.188Z,5.73
2023-04-15T04:23:57.706Z,5.80
2023-04-15T04:26:25.241Z,5.53
2023-04-15T04:28:52.762Z,5.57
2023-04-15T04:31:20.333Z,6.00
2023-04-15T04:33:47.897Z,5.37
2023-04-15T04:36:15.344Z,4.10
2023-04-15T04:38:42.781Z,3.83
2023-04-15T04:41:10.303Z,5.20
2023-04-15T04:43:37.741Z,4.07
2023-04-15T04:46:05.318Z,3.50
2023-04-15T04:48:32.861Z,3.37
2023-04-15T04:51:00.385Z,3.80
2023-04-15T04:53:28.284Z,2.60
2023-04-15T04:55:55.899Z,2.90
2023-04-15T04:58:23.463Z,2.33
2023-04-15T05:00:51.326Z,2.40
2023-04-15T05:03:19.230Z,2.30
2023-04-15T05:05:47.016Z,2.23
2023-04-15T05:08:14.475Z,3.17
2023-04-15T05:10:42.271Z,4.10
2023-04-15T05:13:09.811Z,3.70
2023-04-15T05:15:39.904Z,2.87
2023-04-15T05:18:07.752Z,1.97
2023-04-15T05:20:35.578Z,2.07
2023-04-15T05:23:03.070Z,2.90
2023-04-15T05:25:30.581Z,1.90
2023-04-15T05:27:58.093Z,2.00
2023-04-15T05:30:25.648Z,1.90
2023-04-15T05:32:53.254Z,1.90
2023-04-15T05:35:20.788Z,1.90
2023-04-15T05:37:48.286Z,2.70
2023-04-15T05:40:16.372Z,2.00
2023-04-15T05:42:43.850Z,2.20
2023-04-15T05:45:12.336Z,1.93
2023-04-15T05:47:39.987Z,3.63
2023-04-15T05:50:08.400Z,3.80
2023-04-15T05:52:36.144Z,3.40
2023-04-15T05:55:03.819Z,3.13
2023-04-15T05:57:31.615Z,2.27
2023-04-15T05:59:59.196Z,2.30
2023-04-15T06:02:26.875Z,2.77
2023-04-15T06:04:54.412Z,1.87
2023-04-15T06:07:21.925Z,2.70
2023-04-15T06:09:49.721Z,1.90
2023-04-15T06:12:17.344Z,1.83
2023-04-15T06:14:44.776Z,1.87
2023-04-15T06:17:15.127Z,2.30
2023-04-15T06:19:42.628Z,2.07
2023-04-15T06:22:10.078Z,2.20
2023-04-15T06:24:37.648Z,2.80
2023-04-15T06:27:05.169Z,2.80
2023-04-15T06:29:32.631Z,3.50
2023-04-15T06:32:00.345Z,4.80
2023-04-15T06:34:27.862Z,5.33
2023-04-15T06:36:55.350Z,4.97
2023-04-15T06:39:22.840Z,8.80
2023-04-15T06:41:50.444Z,4.80
2023-04-15T06:44:18.783Z,3.30
2023-04-15T06:46:46.255Z,2.70
2023-04-15T06:49:13.727Z,3.90
2023-04-15T06:51:42.195Z,3.60
2023-04-15T06:54:09.736Z,2.70
2023-04-15T06:56:37.322Z,2.53
2023-04-15T06:59:04.886Z,2.30
2023-04-15T07:01:32.446Z,2.50
2023-04-15T07:04:00.024Z,2.87
2023-04-15T07:06:27.951Z,1.70
2023-04-15T07:08:55.935Z,1.90
2023-04-15T07:11:23.394Z,1.27
2023-04-15T07:13:50.928Z,1.67
2023-04-15T07:16:18.614Z,1.30
2023-04-15T07:18:46.120Z,4.67
2023-04-15T07:21:13.562Z,1.30
2023-04-15T07:23:41.081Z,1.13
2023-04-15T07:26:09.858Z,1.60
2023-04-15T07:28:37.444Z,2.10
2023-04-15T07:31:05.142Z,1.03
2023-04-15T07:33:32.692Z,1.00
2023-04-15T07:36:00.224Z,1.20
2023-04-15T07:38:27.732Z,1.27
2023-04-15T07:40:55.251Z,1.00
2023-04-15T07:43:22.728Z,0.93
2023-04-15T07:45:50.295Z,0.80
2023-04-15T07:48:17.795Z,1.20
2023-04-15T07:50:45.300Z,2.80
2023-04-15T07:53:13.712Z,1.20
2023-04-15T07:55:41.300Z,1.10
2023-04-15T07:58:08.766Z,1.20
2023-04-15T08:00:36.563Z,1.10
2023-04-15T08:03:04.403Z,1.70
2023-04-15T08:05:32.101Z,0.90
2023-04-15T08:07:59.751Z,1.70
2023-04-15T08:10:27.497Z,2.30
2023-04-15T08:12:55.343Z,1.30
2023-04-15T08:15:22.855Z,1.60
2023-04-15T08:17:50.711Z,3.33
2023-04-15T08:20:18.269Z,1.57
2023-04-15T08:22:48.012Z,1.97
2023-04-15T08:25:15.550Z,1.00
2023-04-15T08:27:43.019Z,1.10
2023-04-15T08:30:10.888Z,1.43
2023-04-15T08:32:38.340Z,1.00
2023-04-15T08:35:06.572Z,4.50
2023-04-15T08:37:34.033Z,1.43
2023-04-15T08:40:01.675Z,0.93
2023-04-15T08:42:32.943Z,2.37
2023-04-15T08:45:02.067Z,0.90
2023-04-15T08:47:34.794Z,1.53
2023-04-15T08:50:04.991Z,1.37
2023-04-15T08:52:32.607Z,1.00
2023-04-15T08:55:02.743Z,1.00
2023-04-15T08:57:30.217Z,1.50
2023-04-15T08:59:58.228Z,1.10
2023-04-15T09:02:27.595Z,1.67
2023-04-15T09:04:55.196Z,1.03
2023-04-15T09:07:22.759Z,1.00
2023-04-15T09:09:51.397Z,1.10
2023-04-15T09:12:18.943Z,1.20
2023-04-15T09:14:48.290Z,1.20
2023-04-15T09:17:21.351Z,0.93
2023-04-15T09:19:49.108Z,0.80
2023-04-15T09:22:16.814Z,2.20
2023-04-15T09:24:44.291Z,1.40
2023-04-15T09:27:17.481Z,2.20
2023-04-15T09:29:44.957Z,0.80
2023-04-15T09:32:15.728Z,0.80
2023-04-15T09:34:43.632Z,0.90
2023-04-15T09:37:11.427Z,0.87
2023-04-15T09:39:49.039Z,1.50
2023-04-15T09:42:17.856Z,0.80
2023-04-15T09:44:45.652Z,0.83
2023-04-15T09:47:32.554Z,0.60
2023-04-15T09:50:01.942Z,0.40
2023-04-15T09:52:30.159Z,0.60
2023-04-15T09:55:01.273Z,0.50
2023-04-15T09:57:39.659Z,0.40
2023-04-15T10:00:11.554Z,0.60
2023-04-15T10:02:42.336Z,0.60
2023-04-15T10:05:17.750Z,0.43
2023-04-15T10:07:45.997Z,0.50
2023-04-15T10:10:15.215Z,0.60
2023-04-15T10:12:44.303Z,0.67
2023-04-15T10:15:17.694Z,0.50
2023-04-15T10:17:46.370Z,0.50
2023-04-15T10:20:15.559Z,0.50
2023-04-15T10:22:43.980Z,0.33
2023-04-15T10:25:12.768Z,0.67
2023-04-15T10:27:42.391Z,0.80
2023-04-15T10:30:10.436Z,0.70
2023-04-15T10:32:38.939Z,0.70
2023-04-15T10:35:07.665Z,0.40
2023-04-15T10:37:39.539Z,0.67
2023-04-15T10:40:33.372Z,0.50
2023-04-15T10:43:02.824Z,0.40
2023-04-15T10:45:37.185Z,0.60
2023-04-15T10:48:09.084Z,0.50
2023-04-15T10:50:38.135Z,0.47
2023-04-15T10:53:06.038Z,0.40
2023-04-15T10:55:34.995Z,0.50
2023-04-15T10:58:03.102Z,0.60
2023-04-15T11:00:32.856Z,0.50
2023-04-15T11:03:09.480Z,0.47
2023-04-15T11:05:42.795Z,0.40
2023-04-15T11:08:11.914Z,0.50
2023-04-15T11:10:39.342Z,0.50
2023-04-15T11:13:22.172Z,0.50
2023-04-15T11:15:52.087Z,0.20
2023-04-15T11:18:28.685Z,0.40
2023-04-15T11:21:03.625Z,0.30
2023-04-15T11:23:38.575Z,0.20
2023-04-15T11:26:15.084Z,0.50
2023-04-15T11:28:45.284Z,0.53
2023-04-15T11:31:16.598Z,0.50
2023-04-15T11:33:55.755Z,0.50
2023-04-15T11:36:28.028Z,0.40
2023-04-15T11:38:57.561Z,0.50
2023-04-15T11:41:25.266Z,0.67
2023-04-15T11:43:53.160Z,0.60
2023-04-15T11:46:23.066Z,0.40
2023-04-15T11:48:52.061Z,0.40
2023-04-15T11:51:21.999Z,0.63
2023-04-15T11:53:51.776Z,0.57
2023-04-15T11:56:22.398Z,0.30
2023-04-15T11:58:54.271Z,0.50
2023-04-15T12:01:21.817Z,0.40
2023-04-15T12:03:50.496Z,0.30
2023-04-15T12:06:24.754Z,0.30
2023-04-15T12:09:05.106Z,0.50
2023-04-15T12:11:44.389Z,0.40
2023-04-15T12:14:26.699Z,0.60
2023-04-15T12:17:00.617Z,0.47
2023-04-15T12:19:37.669Z,0.50
2023-04-15T12:22:16.162Z,0.20
2023-04-15T12:24:48.451Z,0.60
2023-04-15T12:27:17.874Z,0.30
2023-04-15T12:29:45.479Z,0.50
2023-04-15T12:32:16.807Z,0.60
2023-04-15T12:34:52.460Z,0.70
2023-04-15T12:37:20.157Z,0.67
2023-04-15T12:39:50.283Z,0.50
2023-04-15T12:42:18.829Z,0.50
2023-04-15T12:44:47.118Z,0.50
2023-04-15T12:47:14.987Z,0.50
2023-04-15T12:49:42.824Z,0.40
2023-04-15T12:52:10.623Z,0.40
2023-04-15T12:54:39.753Z,0.40
2023-04-15T12:57:07.805Z,0.50
2023-04-15T12:59:36.672Z,0.50
2023-04-15T13:02:05.379Z,0.50
2023-04-15T13:04:33.321Z,0.40
2023-04-15T13:07:01.877Z,0.50
2023-04-15T13:09:29.362Z,0.50
2023-04-15T13:11:57.787Z,0.40
2023-04-15T13:14:25.411Z,0.40
2023-04-15T13:16:53.997Z,0.50
2023-04-15T13:19:21.500Z,0.47
2023-04-15T13:21:49.067Z,0.70
2023-04-15T13:24:16.526Z,0.50
2023-04-15T13:26:44.159Z,0.50
2023-04-15T13:29:12.398Z,0.60
2023-04-15T13:31:39.962Z,0.50
2023-04-15T13:34:07.766Z,0.60
2023-04-15T13:36:35.576Z,0.70
2023-04-15T13:39:03.727Z,0.57
2023-04-15T13:41:31.434Z,0.60
2023-04-15T13:43:59.055Z,0.60
2023-04-15T13:46:26.571Z,0.90
2023-04-15T13:48:54.171Z,0.80
2023-04-15T13:51:21.735Z,0.60
2023-04-15T13:53:49.235Z,2.07
2023-04-15T13:56:16.777Z,0.90
2023-04-15T13:58:44.286Z,1.10
2023-04-15T14:01:11.856Z,1.00
2023-04-15T14:03:39.625Z,0.70
2023-04-15T14:06:07.409Z,0.73
2023-04-15T14:08:35.010Z,0.90
2023-04-15T14:11:02.639Z,0.87
2023-04-15T14:13:30.235Z,0.80
2023-04-15T14:15:57.897Z,0.80
2023-04-15T14:18:25.765Z,0.93
2023-04-15T14:20:53.308Z,1.00
2023-04-15T14:23:20.997Z,0.70
2023-04-15T14:25:48.663Z,0.87
2023-04-15T14:28:17.275Z,1.33
2023-04-15T14:30:44.830Z,1.20
2023-04-15T14:33:12.654Z,0.90
2023-04-15T14:35:40.270Z,0.93
2023-04-15T14:38:10.991Z,0.90
2023-04-15T14:40:39.151Z,0.93
2023-04-15T14:43:06.715Z,0.77
2023-04-15T14:45:34.358Z,1.00
2023-04-15T14:48:02.560Z,0.80
2023-04-15T14:50:30.297Z,0.80
2023-04-15T14:52:58.666Z,0.70
2023-04-15T14:55:26.279Z,0.70
2023-04-15T14:57:53.823Z,0.70
2023-04-15T15:00:21.275Z,0.67
2023-04-15T15:02:48.840Z,0.67
2023-04-15T15:05:16.661Z,0.77
2023-04-15T15:07:44.195Z,0.80
2023-04-15T15:10:11.781Z,0.73
2023-04-15T15:12:39.267Z,0.83
2023-04-15T15:15:19.595Z,0.80
2023-04-15T15:17:55.180Z,0.70
2023-04-15T15:20:23.438Z,1.30
2023-04-15T15:22:51.168Z,0.90
2023-04-15T15:25:18.698Z,1.20
2023-04-15T15:27:46.900Z,2.40
2023-04-15T15:30:14.443Z,3.03
2023-04-15T15:32:43.708Z,3.57
2023-04-15T15:35:11.775Z,2.17
2023-04-15T15:37:39.334Z,1.27
2023-04-15T15:40:08.365Z,1.00
2023-04-15T15:42:35.932Z,1.20
2023-04-15T15:45:04.944Z,9.03
2023-04-15T15:47:32.638Z,7.27
2023-04-15T15:50:02.707Z,1.83
2023-04-15T15:52:31.873Z,1.40
2023-04-15T15:54:59.466Z,1.60
2023-04-15T15:57:26.911Z,2.13
2023-04-15T16:00:04.743Z,1.60
2023-04-15T16:03:04.320Z,3.60
2023-04-15T16:05:25.790Z,4.20
2023-04-15T16:07:53.263Z,2.70
2023-04-15T16:10:20.723Z,8.77
2023-04-15T16:12:48.224Z,2.70
2023-04-15T16:15:15.700Z,1.47
2023-04-15T16:17:43.221Z,1.40
2023-04-15T16:20:11.262Z,1.10
2023-04-15T16:22:39.247Z,1.20
2023-04-15T16:25:07.429Z,1.17
2023-04-15T16:27:46.462Z,1.17
2023-04-15T16:30:22.286Z,1.50
2023-04-15T16:32:49.875Z,1.50
2023-04-15T16:35:17.528Z,2.27
2023-04-15T16:37:44.990Z,2.50
2023-04-15T16:40:12.934Z,2.13
2023-04-15T16:42:43.639Z,1.40
2023-04-15T16:45:11.635Z,1.40
2023-04-15T16:47:39.217Z,3.80
2023-04-15T16:50:07.715Z,3.90
2023-04-15T16:52:35.436Z,7.53
2023-04-15T16:55:03.630Z,2.57
2023-04-15T16:57:40.491Z,3.50
2023-04-15T17:00:18.827Z,3.47
2023-04-15T17:02:46.712Z,3.50
2023-04-15T17:05:14.269Z,2.73
2023-04-15T17:07:41.727Z,2.53
2023-04-15T17:10:09.563Z,2.10
2023-04-15T17:12:37.141Z,1.67
2023-04-15T17:15:05.498Z,1.70
2023-04-15T17:17:33.065Z,1.90
2023-04-15T17:20:00.832Z,3.10
2023-04-15T17:22:28.533Z,2.80
2023-04-15T17:24:56.079Z,3.27
2023-04-15T17:27:24.867Z,2.27
2023-04-15T17:29:52.408Z,2.20
2023-04-15T17:32:19.936Z,4.50
2023-04-15T17:34:49.474Z,5.30
2023-04-15T17:37:18.830Z,7.77
2023-04-15T17:39:46.382Z,5.20
2023-04-15T17:42:14.277Z,5.27
2023-04-15T17:44:41.861Z,5.50
2023-04-15T17:47:09.370Z,7.00
2023-04-15T17:49:37.963Z,6.37
2023-04-15T17:52:05.684Z,12.77
2023-04-15T17:54:33.205Z,9.70
2023-04-15T17:57:01.553Z,17.90
2023-04-15T17:59:29.628Z,24.83
2023-04-15T18:01:58.880Z,36.37
2023-04-15T18:04:26.911Z,21.17
2023-04-15T18:06:54.705Z,21.13
2023-04-15T18:09:22.338Z,25.97
2023-04-15T18:11:49.845Z,34.93
2023-04-15T18:14:30.562Z,28.57
2023-04-15T18:17:01.205Z,28.60
2023-04-15T18:19:28.759Z,32.17
2023-04-15T18:21:56.338Z,17.97
2023-04-15T18:24:23.804Z,14.67
2023-04-15T18:26:52.631Z,14.13
2023-04-15T18:29:20.118Z,20.80
2023-04-15T18:31:47.852Z,17.90
2023-04-15T18:34:15.434Z,16.70
2023-04-15T18:36:43.144Z,14.47
2023-04-15T18:39:10.748Z,17.37
2023-04-15T18:41:38.234Z,18.07
2023-04-15T18:44:05.687Z,24.03
2023-04-15T18:46:33.166Z,21.37
2023-04-15T18:49:00.717Z,13.77
2023-04-15T18:51:28.205Z,12.07
2023-04-15T18:53:55.847Z,13.33
2023-04-15T18:56:23.355Z,12.93
2023-04-15T18:59:18.442Z,12.70
2023-04-15T19:01:38.323Z,14.20
2023-04-15T19:04:05.995Z,16.37
2023-04-15T19:06:33.900Z,21.10
2023-04-15T19:09:01.471Z,30.87
2023-04-15T19:11:29.150Z,39.87
2023-04-15T19:13:56.601Z,30.93
2023-04-15T19:16:24.220Z,24.63
2023-04-15T19:18:51.895Z,19.43
2023-04-15T19:21:19.592Z,18.53
2023-04-15T19:23:48.314Z,19.43
2023-04-15T19:26:15.843Z,20.80
2023-04-15T19:28:43.323Z,19.77
2023-04-15T19:31:10.834Z,24.37
2023-04-15T19:33:38.719Z,43.53
2023-04-15T19:36:08.274Z,46.90
2023-04-15T19:38:36.270Z,31.13
2023-04-15T19:41:04.236Z,24.00
2023-04-15T19:43:33.482Z,19.77
2023-04-15T19:46:01.038Z,18.93
2023-04-15T19:48:28.569Z,19.63
2023-04-15T19:50:57.318Z,22.33
2023-04-15T19:53:25.838Z,21.53
2023-04-15T19:55:53.369Z,17.47
2023-04-15T19:58:20.891Z,15.37
2023-04-15T20:00:48.445Z,16.03
2023-04-15T20:03:16.395Z,17.17
2023-04-15T20:05:44.005Z,21.80
2023-04-15T20:08:11.744Z,17.93
2023-04-15T20:10:39.329Z,18.47
2023-04-15T20:13:06.789Z,18.43
2023-04-15T20:15:34.351Z,17.73
2023-04-15T20:18:01.922Z,14.80
2023-04-15T20:20:29.421Z,16.00
2023-04-15T20:22:57.069Z,17.77
2023-04-15T20:25:24.930Z,17.40
2023-04-15T20:27:52.511Z,17.97
2023-04-15T20:30:20.163Z,14.60
2023-04-15T20:32:48.905Z,13.40
2023-04-15T20:35:17.715Z,14.10
2023-04-15T20:37:45.298Z,14.97
2023-04-15T20:40:14.600Z,14.03
2023-04-15T20:42:43.885Z,13.30
2023-04-15T20:45:11.614Z,12.57
2023-04-15T20:47:39.148Z,14.20
2023-04-15T20:50:07.597Z,13.67
2023-04-15T20:52:35.044Z,15.27
2023-04-15T20:55:02.658Z,12.97
2023-04-15T20:57:30.568Z,12.87
2023-04-15T20:59:58.157Z,11.97
2023-04-15T21:02:25.890Z,12.70
2023-04-15T21:04:53.474Z,11.97
2023-04-15T21:07:21.009Z,12.20
2023-04-15T21:09:49.417Z,13.83
2023-04-15T21:12:16.938Z,15.53
2023-04-15T21:14:44.567Z,17.17
2023-04-15T21:17:12.212Z,26.90
2023-04-15T21:19:40.692Z,16.63
2023-04-15T21:22:09.509Z,13.80
2023-04-15T21:24:37.033Z,17.63
2023-04-15T21:27:04.849Z,14.40
2023-04-15T21:29:32.392Z,16.77
2023-04-15T21:31:59.960Z,18.13
2023-04-15T21:34:27.491Z,13.80
2023-04-15T21:36:54.969Z,13.33
2023-04-15T21:39:22.463Z,13.67
2023-04-15T21:41:50.035Z,14.80
2023-04-15T21:44:17.667Z,13.03
2023-04-15T21:46:45.946Z,12.13
2023-04-15T21:49:14.372Z,12.30
2023-04-15T21:51:42.279Z,13.70
2023-04-15T21:54:09.786Z,12.50
2023-04-15T21:56:38.047Z,12.33
2023-04-15T21:59:05.706Z,13.93
2023-04-15T22:01:33.406Z,15.93
2023-04-15T22:04:01.189Z,17.30
2023-04-15T22:06:28.956Z,16.63
2023-04-15T22:08:57.910Z,16.57
2023-04-15T22:11:30.880Z,17.47
2023-04-15T22:13:59.535Z,16.10
2023-04-15T22:16:27.753Z,13.70
2023-04-15T22:18:56.092Z,12.40
2023-04-15T22:21:23.938Z,12.27
2023-04-15T22:23:52.373Z,11.83
2023-04-15T22:26:19.906Z,13.33
2023-04-15T22:28:47.390Z,13.60
2023-04-15T22:31:15.145Z,13.90
2023-04-15T22:33:42.712Z,14.23
2023-04-15T22:36:10.188Z,16.10
2023-04-15T22:38:37.753Z,16.30
2023-04-15T22:41:05.371Z,16.30
2023-04-15T22:43:32.791Z,14.43
2023-04-15T22:46:01.459Z,14.27
2023-04-15T22:48:29.067Z,14.77
2023-04-15T22:50:56.559Z,14.23
2023-04-15T22:53:24.122Z,15.93
2023-04-15T22:55:52.103Z,23.03
2023-04-15T22:58:19.584Z,15.03
2023-04-15T23:00:47.062Z,14.30
2023-04-15T23:03:14.621Z,13.47
2023-04-15T23:05:42.655Z,12.77
2023-04-15T23:08:10.154Z,16.57
2023-04-15T23:10:40.150Z,34.73
2023-04-15T23:13:07.572Z,15.17
2023-04-15T23:15:35.102Z,16.07
2023-04-15T23:18:02.736Z,18.37
2023-04-15T23:20:30.195Z,23.40
2023-04-15T23:22:57.636Z,21.80
2023-04-15T23:25:25.252Z,22.33
2023-04-15T23:27:52.695Z,22.03
2023-04-15T23:30:20.205Z,19.93
2023-04-15T23:32:47.756Z,16.50
2023-04-15T23:35:15.303Z,17.93
2023-04-15T23:37:42.778Z,16.47
2023-04-15T23:40:11.185Z,14.90
2023-04-15T23:42:38.645Z,15.03
2023-04-15T23:45:06.823Z,15.40
2023-04-15T23:47:34.298Z,15.77
2023-04-15T23:50:02.161Z,14.90
2023-04-15T23:52:29.738Z,14.13
2023-04-15T23:54:57.243Z,13.03
2023-04-15T23:57:24.742Z,12.63
2023-04-15T23:59:53.083Z,13.73
